Impacts TAF Board
For situational awareness. Not to be used for flight planning purposes.
IDs:

KPDX - Portland Intl Arpt, OR, US

Issued at 2320 UTC 19 Jan 2022
Updated at 0127 UTC 20 Jan 2022
Potential Impact None Slight Moderate High
Time0053Z 20/02Z 20/03Z 20/04Z 20/05Z 20/06Z 20/07Z 20/08Z 20/09Z 20/10Z 20/11Z 20/12Z 20/13Z 20/14Z>>
Type OBS PRVL
  [TEMP]  
PRVL PRVL PRVL PRVL PRVL PRVL PRVL PRVL PRVL PRVL PRVL PRVL
VIS 2 3
  [2]  
4 4 4 4 4 4 4 4 4 4 4 4
CIG 9 8
  [4]  
10 10 10 10 10 8 8 8 8 8 8 8
Cover OVC OVC
  [OVC]  
OVC OVC OVC OVC OVC OVC OVC OVC OVC OVC OVC OVC
FltCat IFR IFR
  [LIFR]  
MVFR MVFR MVFR MVFR MVFR IFR IFR IFR IFR IFR IFR IFR
WX -DZ -RA BR
  [-RA BR]  
-RA BR -RA BR -RA BR -RA BR -RA BR -RA BR -RA BR -RA BR -RA BR -RA BR -RA BR -RA BR
WDir 120 120
[120]
120 120 120 120 120 160 160 160 160 160 160 160
WSpd 11 7
  [7]  
7 7 7 7 7 8 8 8 8 8 8 8
WGst -- --
  [--]  
-- -- -- -- -- -- -- -- -- -- -- --
WSHgt -- --
[--]
-- -- -- -- -- -- -- -- -- -- -- --
WSDir -- --
[--]
-- -- -- -- -- -- -- -- -- -- -- --
WSSpd -- --
[--]
-- -- -- -- -- -- -- -- -- -- -- --
Raw TAF
KPDX 192320Z 2000/2024 12007KT 3SM -RA BR SCT004 OVC008
  TEMPO 2000/2003 2SM -RA BR BKN004 OVC008
  FM200300 12007KT 4SM -RA BR SCT006 OVC010
  FM200800 16008KT 4SM -RA BR SCT004 OVC008
  FM202200 27007KT 6SM -SHRA SCT008 OVC015


Raw METAR
KPDX 200053Z 12011KT 2SM -DZ OVC009 07/06 A3031 RMK AO2 SFC VIS 3 SLP262 P0002 T00720061
KPDX 200030Z 12012KT 2SM -DZ OVC009 07/06 A3031 RMK AO2 P0001 T00720061
KPDX 192353Z 12008KT 1 3/4SM -DZ OVC009 08/07 A3031 RMK AO2 TWR VIS 2 SLP262 P0001 60008 T00780067 10078 20067 53001
KPDX 192253Z 12010KT 2SM -DZ OVC008 08/06 A3030 RMK AO2 SFC VIS 3 RAE28DZB29 SLP261 P0001 T00780061

METAR Board
Radar Display
Forecast Discussion
For situational awareness. Not to be used for flight planning purposes.